Text Box: All records at near 07:00 local time
Kleivo 1 weather for Aug 2007
Month no. 9
Obs.
Da.
Temp. Dew Point Precip. Wind
Speed
Wind gusts Cloud cover Press. Humidity Wind dir. Sunny OPT
01.08.2007 11,2   2,0 9,0   0 995,9 85,0 112,5   60,0 %
02.08.2007 11,2   8,1 9,0   0 995,9 85,0 112,5   55,0 %
03.08.2007 18,2   15,9 0,0   0 1014,6 69,0 315,0   60,0 %
04.08.2007 20,4   25,4 0,0   0 1015,6 50,0 337,5   55,0 %
05.08.2007 20,4   25,4 0,0   0 1015,6 50,0 337,5   55,0 %
06.08.2007 21,8   22,2 0,0   8 1011,2 75,0 0,0   77,5 %
07.08.2007 20,1   0,0 4,0   0 1009,1 52,0 315,0   72,5 %
08.08.2007 20,1   3,4 4,0   0 1009,1 52,0 315,0   70,0 %
09.08.2007 20,1   3,0 4,0   0 1009,1 52,0 315,0   70,0 %
10.08.2007 20,1   0,1 4,0   0 1009,1 52,0 315,0   72,5 %
11.08.2007 20,1   0,1 4,0   0 1009,1 52,0 315,0   72,5 %
12.08.2007 20,1   0,0 4,0   0 1009,1 52,0 315,0   72,5 %
13.08.2007 11,3   0,0 1,0   0 1002,0 77,0 225,0   65,0 %
14.08.2007 7,4   16,6 24,0   0 1005,1 85,0 180,0   32,5 %
15.08.2007 13,5   13,0 48,0   0 985,4 88,0 157,5   32,5 %
16.08.2007 7,8   48,9 22,0   0 991,9 92,0 202,5   22,5 %
17.08.2007 7,2   37,9 14,0   4 996,6 97,0 270,0 1 37,5 %
18.08.2007 6,2   43,1 12,0   10 1008,8 99,0 270,0 1 52,5 %
19.08.2007 8,3   0,4 16,0   0 1010,8 74,0 135,0   52,5 %
20.08.2007 11,8   13,2 18,0   10 1009,1 77,0 135,0 1 70,0 %
21.08.2007 17,9   0,1 0,0   10 1010,5 68,0 337,5 1 97,5 %
22.08.2007 17,9   0,0 0,0   10 1010,5 68,0 337,5 1 97,5 %
23.08.2007 17,9   0,0 0,0   10 1010,5 68,0 337,5 1 97,5 %
24.08.2007 17,9   0,0 0,0   10 1010,5 68,0 337,5 1 97,5 %
25.08.2007 12,9   11,3 1,0   10 1014,6 94,0 67,5 1 85,0 %
26.08.2007 6,3   19,2 15,0   2 1012,5 98,0 292,5   40,0 %
27.08.2007 4,1   28,1 7,0   5 1012,9 100,0 315,0 1 45,0 %
28.08.2007 9,6   1,8 17,0   10 1022,7 38,0 337,5 1 77,5 %
29.08.2007 11,1   11,3 13,0   10 1020,7 37,0 337,5 1 75,0 %
30.08.2007 14,4   0,2 2,0   10 1011,5 65,0 247,5 1 92,5 %
31.08.2007 16,3   5,1 1,0   10 1010,2 83,0 22,5 1 92,5 %
Avrg/Sum 14,3   355,8 8,2   4,2 1008,4 71,0 246,8 13 66,3 %